createdAt,value
2018-07-31T00:03:44.361Z,23.30
2018-07-31T00:08:28.703Z,23.20
2018-07-31T00:13:13.009Z,23.10
2018-07-31T00:17:57.295Z,23.20
2018-07-31T00:22:41.721Z,23.30
2018-07-31T00:27:26.193Z,23.30
2018-07-31T00:32:10.476Z,23.40
2018-07-31T00:36:55.831Z,23.50
2018-07-31T00:41:40.748Z,23.70
2018-07-31T00:46:24.987Z,23.80
2018-07-31T00:51:09.325Z,23.70
2018-07-31T00:55:53.710Z,23.30
2018-07-31T01:00:38.089Z,23.00
2018-07-31T01:05:22.411Z,22.80
2018-07-31T01:10:06.822Z,22.60
2018-07-31T01:14:51.103Z,22.40
2018-07-31T01:19:35.509Z,22.10
2018-07-31T01:24:19.974Z,22.00
2018-07-31T01:29:04.415Z,22.00
2018-07-31T01:33:48.658Z,21.90
2018-07-31T01:38:33.007Z,21.90
2018-07-31T01:43:17.301Z,21.90
2018-07-31T01:48:01.607Z,21.90
2018-07-31T01:52:45.928Z,21.90
2018-07-31T01:57:30.309Z,22.00
2018-07-31T02:02:14.693Z,22.10
2018-07-31T02:06:59.021Z,22.20
2018-07-31T02:11:43.356Z,22.30
2018-07-31T02:16:27.735Z,22.40
2018-07-31T02:21:11.981Z,22.40
2018-07-31T02:25:56.393Z,22.40
2018-07-31T02:35:24.587Z,22.30
2018-07-31T02:40:09.059Z,22.30
2018-07-31T02:44:53.513Z,22.20
2018-07-31T02:49:37.893Z,22.20
2018-07-31T02:54:22.237Z,22.10
2018-07-31T02:59:07.873Z,22.10
2018-07-31T03:03:52.188Z,22.10
2018-07-31T03:08:36.597Z,22.10
2018-07-31T03:13:21.073Z,22.20
2018-07-31T03:18:05.363Z,22.20
2018-07-31T03:22:49.639Z,22.10
2018-07-31T03:27:34.011Z,22.00
2018-07-31T03:32:18.280Z,21.90
2018-07-31T03:37:02.683Z,21.90
2018-07-31T03:41:47.032Z,22.00
2018-07-31T03:46:31.329Z,21.90
2018-07-31T03:51:15.615Z,22.00
2018-07-31T03:55:59.970Z,22.20
2018-07-31T04:00:44.257Z,22.60
2018-07-31T04:05:28.633Z,23.10
2018-07-31T04:10:14.741Z,23.40
2018-07-31T04:14:59.038Z,23.50
2018-07-31T04:19:43.398Z,23.20
2018-07-31T04:24:27.807Z,23.00
2018-07-31T04:29:12.084Z,22.90
2018-07-31T04:33:56.313Z,22.90
2018-07-31T04:38:40.531Z,23.00
2018-07-31T04:43:25.598Z,23.20
2018-07-31T04:48:09.843Z,23.50
2018-07-31T04:52:54.127Z,23.70
2018-07-31T04:57:38.418Z,23.80
2018-07-31T05:02:22.720Z,24.10
2018-07-31T05:07:07.049Z,24.40
2018-07-31T05:11:51.380Z,24.60
2018-07-31T05:16:35.672Z,24.90
2018-07-31T05:21:20.079Z,25.10
2018-07-31T05:26:04.594Z,25.40
2018-07-31T05:30:49.030Z,25.70
2018-07-31T05:35:34.385Z,26.00
2018-07-31T05:40:18.737Z,26.30
2018-07-31T05:45:03.020Z,26.40
2018-07-31T05:49:47.467Z,26.60
2018-07-31T05:54:31.775Z,26.70
2018-07-31T05:59:16.077Z,27.00
2018-07-31T06:04:00.667Z,27.30
2018-07-31T06:08:45.901Z,27.50
2018-07-31T06:13:30.278Z,27.60
2018-07-31T06:18:14.567Z,27.90
2018-07-31T06:22:58.955Z,28.10
2018-07-31T06:27:43.704Z,28.50
2018-07-31T06:32:28.107Z,28.80
2018-07-31T06:37:13.559Z,29.10
2018-07-31T06:41:58.077Z,29.60
2018-07-31T06:46:42.467Z,29.80
2018-07-31T06:51:26.821Z,30.30
2018-07-31T06:56:11.128Z,30.80
2018-07-31T07:00:55.396Z,31.10
2018-07-31T07:05:39.667Z,31.60
2018-07-31T07:10:23.849Z,32.00
2018-07-31T07:15:08.157Z,32.50
2018-07-31T07:19:52.537Z,32.40
2018-07-31T07:24:36.870Z,32.60
2018-07-31T07:29:21.137Z,32.90
2018-07-31T07:38:49.349Z,33.50
2018-07-31T07:43:33.691Z,33.80
2018-07-31T07:48:17.949Z,34.00
2018-07-31T07:53:02.274Z,34.20
2018-07-31T07:57:46.570Z,34.40
2018-07-31T08:02:30.921Z,34.60
2018-07-31T08:07:15.326Z,34.80
2018-07-31T08:11:59.797Z,35.20
2018-07-31T08:16:44.108Z,35.30
2018-07-31T08:21:28.623Z,35.60
2018-07-31T08:26:12.924Z,36.00
2018-07-31T08:30:57.315Z,36.30
2018-07-31T08:35:41.780Z,36.60
2018-07-31T08:40:26.373Z,36.50
2018-07-31T08:45:10.873Z,36.70
2018-07-31T08:49:55.365Z,36.80
2018-07-31T08:54:39.637Z,37.20
2018-07-31T08:59:24.351Z,37.70
2018-07-31T09:04:08.786Z,37.90
2018-07-31T09:08:53.257Z,37.80
2018-07-31T09:13:37.627Z,38.40
2018-07-31T09:18:21.907Z,38.20
2018-07-31T09:23:06.243Z,38.10
2018-07-31T09:27:50.648Z,38.40
2018-07-31T09:32:40.306Z,38.60
2018-07-31T09:37:24.801Z,38.80
2018-07-31T09:42:09.081Z,38.70
2018-07-31T09:46:53.320Z,38.70
2018-07-31T09:51:37.669Z,39.00
2018-07-31T09:56:22.169Z,39.30
2018-07-31T10:01:11.883Z,39.90
2018-07-31T10:05:56.240Z,39.90
2018-07-31T10:10:40.643Z,40.20
2018-07-31T10:15:24.840Z,40.00
2018-07-31T10:20:09.173Z,39.50
2018-07-31T10:24:53.417Z,39.50
2018-07-31T10:29:37.769Z,40.00
2018-07-31T10:34:22.208Z,39.70
2018-07-31T10:39:08.264Z,39.80
2018-07-31T10:43:52.690Z,40.50
2018-07-31T10:48:37.090Z,40.70
2018-07-31T10:53:21.470Z,41.10
2018-07-31T10:58:05.934Z,40.90
2018-07-31T11:02:50.145Z,40.30
2018-07-31T11:07:34.519Z,40.50
2018-07-31T11:12:19.018Z,40.60
2018-07-31T11:17:03.477Z,40.50
2018-07-31T11:21:47.792Z,40.50
2018-07-31T11:26:32.095Z,40.60
2018-07-31T11:31:16.490Z,40.60
2018-07-31T11:36:00.763Z,40.50
2018-07-31T11:40:45.100Z,41.20
2018-07-31T11:45:29.377Z,41.10
2018-07-31T11:50:13.687Z,41.00
2018-07-31T11:54:57.997Z,41.30
2018-07-31T11:59:42.385Z,41.20
2018-07-31T12:04:26.700Z,41.00
2018-07-31T12:09:12.635Z,40.40
2018-07-31T12:13:57.125Z,39.70
2018-07-31T12:18:41.396Z,39.80
2018-07-31T12:23:25.805Z,40.20
2018-07-31T12:28:10.161Z,40.70
2018-07-31T12:32:54.794Z,41.60
2018-07-31T12:37:39.177Z,41.90
2018-07-31T12:42:23.688Z,41.90
2018-07-31T12:47:07.983Z,41.90
2018-07-31T12:51:52.420Z,41.60
2018-07-31T12:56:36.752Z,41.60
2018-07-31T13:01:21.223Z,41.70
2018-07-31T13:06:06.355Z,42.30
2018-07-31T13:10:50.814Z,42.50
2018-07-31T13:15:35.116Z,42.10
2018-07-31T13:20:19.588Z,42.00
2018-07-31T13:25:04.194Z,41.90
2018-07-31T13:29:48.758Z,41.30
2018-07-31T13:34:33.334Z,41.50
2018-07-31T13:39:17.626Z,41.60
2018-07-31T13:44:02.053Z,41.30
2018-07-31T13:48:46.283Z,40.90
2018-07-31T13:53:30.557Z,40.00
2018-07-31T13:58:14.960Z,40.00
2018-07-31T14:02:59.273Z,40.20
2018-07-31T14:07:43.644Z,40.70
2018-07-31T14:12:27.972Z,40.90
2018-07-31T14:17:12.358Z,41.40
2018-07-31T14:21:56.654Z,41.80
2018-07-31T14:26:41.060Z,42.40
2018-07-31T14:31:25.460Z,42.10
2018-07-31T14:36:09.831Z,41.70
2018-07-31T14:40:54.154Z,41.80
2018-07-31T14:45:38.493Z,41.80
2018-07-31T14:50:22.981Z,41.50
2018-07-31T14:55:07.622Z,41.80
2018-07-31T14:59:52.186Z,41.50
2018-07-31T15:04:36.567Z,41.30
2018-07-31T15:09:20.941Z,41.50
2018-07-31T15:14:05.516Z,41.50
2018-07-31T15:18:49.835Z,41.50
2018-07-31T15:23:34.435Z,41.70
2018-07-31T15:28:18.660Z,41.80
2018-07-31T15:33:03.080Z,41.60
2018-07-31T15:37:47.483Z,41.20
2018-07-31T15:42:31.840Z,40.90
2018-07-31T15:47:16.182Z,40.70
2018-07-31T15:52:00.643Z,40.60
2018-07-31T15:56:45.129Z,41.00
2018-07-31T16:01:29.537Z,41.40
2018-07-31T16:06:14.065Z,41.90
2018-07-31T16:10:58.476Z,41.90
2018-07-31T16:15:42.883Z,41.60
2018-07-31T16:20:27.233Z,41.60
2018-07-31T16:25:11.652Z,41.60
2018-07-31T16:29:55.972Z,41.90
2018-07-31T16:34:40.420Z,42.30
2018-07-31T16:39:24.799Z,42.70
2018-07-31T16:44:09.003Z,43.10
2018-07-31T16:48:53.308Z,43.00
2018-07-31T16:53:37.590Z,43.00
2018-07-31T16:58:21.811Z,43.20
2018-07-31T17:03:06.139Z,42.80
2018-07-31T17:07:50.436Z,42.40
2018-07-31T17:12:34.829Z,42.10
2018-07-31T17:17:19.055Z,41.60
2018-07-31T17:22:03.244Z,41.20
2018-07-31T17:26:47.601Z,41.00
2018-07-31T17:31:31.979Z,40.50
2018-07-31T17:36:16.299Z,39.70
2018-07-31T17:41:00.508Z,38.90
2018-07-31T17:45:44.972Z,37.20
2018-07-31T17:50:29.314Z,35.80
2018-07-31T17:55:13.603Z,34.90
2018-07-31T17:59:57.877Z,34.00
2018-07-31T18:04:42.432Z,33.30
2018-07-31T18:09:26.722Z,32.70
2018-07-31T18:14:11.209Z,32.30
2018-07-31T18:18:55.484Z,31.90
2018-07-31T18:23:40.041Z,31.50
2018-07-31T18:28:24.454Z,31.00
2018-07-31T18:33:08.882Z,30.70
2018-07-31T18:37:53.130Z,30.40
2018-07-31T18:42:37.402Z,30.10
2018-07-31T18:47:21.749Z,29.90
2018-07-31T18:52:05.951Z,29.60
2018-07-31T18:56:50.333Z,29.30
2018-07-31T19:01:34.726Z,28.90
2018-07-31T19:11:03.895Z,28.60
2018-07-31T19:15:48.312Z,28.40
2018-07-31T19:20:32.545Z,28.30
2018-07-31T19:25:16.919Z,28.10
2018-07-31T19:30:01.320Z,27.90
2018-07-31T19:34:45.686Z,27.80
2018-07-31T19:39:30.161Z,27.50
2018-07-31T19:44:14.453Z,27.40
2018-07-31T19:48:58.835Z,27.20
2018-07-31T19:53:43.131Z,27.20
2018-07-31T19:58:27.437Z,27.00
2018-07-31T20:03:11.717Z,27.00
2018-07-31T20:07:56.022Z,26.90
2018-07-31T20:12:40.269Z,26.90
2018-07-31T20:17:24.500Z,26.70
2018-07-31T20:22:14.280Z,26.40
2018-07-31T20:26:58.588Z,26.30
2018-07-31T20:31:43.034Z,26.20
2018-07-31T20:36:27.629Z,26.20
2018-07-31T20:41:11.922Z,26.10
2018-07-31T20:45:56.270Z,25.90
2018-07-31T20:50:40.556Z,25.50
2018-07-31T20:55:24.921Z,25.30
2018-07-31T21:00:10.213Z,25.40
2018-07-31T21:04:54.630Z,25.30
2018-07-31T21:09:39.402Z,25.40
2018-07-31T21:14:23.700Z,25.30
2018-07-31T21:19:07.958Z,25.10
2018-07-31T21:23:52.239Z,24.80
2018-07-31T21:28:36.631Z,24.50
2018-07-31T21:33:20.957Z,24.40
2018-07-31T21:38:05.242Z,24.40
2018-07-31T21:42:49.466Z,24.60
2018-07-31T21:47:33.792Z,24.90
2018-07-31T21:52:18.171Z,24.90
2018-07-31T21:57:02.400Z,24.80
2018-07-31T22:01:46.719Z,25.00
2018-07-31T22:06:30.975Z,25.10
2018-07-31T22:11:15.273Z,25.10
2018-07-31T22:15:59.706Z,25.00
2018-07-31T22:20:45.134Z,24.90
2018-07-31T22:25:29.696Z,24.90
2018-07-31T22:30:14.167Z,24.70
2018-07-31T22:34:58.555Z,24.50
2018-07-31T22:39:42.829Z,24.30
2018-07-31T22:44:27.153Z,24.30
2018-07-31T22:49:11.615Z,24.20
2018-07-31T22:53:55.892Z,23.90
2018-07-31T22:58:40.402Z,23.70
2018-07-31T23:03:25.137Z,23.50
2018-07-31T23:08:09.408Z,23.40
2018-07-31T23:12:53.706Z,23.30
2018-07-31T23:17:37.944Z,23.10
2018-07-31T23:22:33.423Z,23.10
2018-07-31T23:27:17.895Z,23.20
2018-07-31T23:32:02.497Z,23.30
2018-07-31T23:36:46.958Z,23.60
2018-07-31T23:41:31.388Z,23.70
2018-07-31T23:46:15.872Z,23.70
2018-07-31T23:51:00.368Z,23.90
2018-07-31T23:55:44.786Z,23.70
